Time;durP1;ratioP1;P1;durP2;ratioP2;P2;SDS_P1;SDS_P2;PMS_P1;PMS_P2;Temp;Humidity;BMP_temperature;BMP_pressure;BME280_temperature;BME280_humidity;BME280_pressure;Samples;Min_cycle;Max_cycle;Signal;HPM_P1;HPM_P2
2022/04/12 00:00:41;;;;;;;1.20;0.80;;;13.10;66.80;;;;;;5010206;28;20036;-74
2022/04/12 00:03:09;;;;;;;1.80;0.73;;;13.10;66.50;;;;;;5018722;28;20044;-76
2022/04/12 00:05:37;;;;;;;1.42;0.70;;;13.10;66.50;;;;;;5016842;28;20049;-76
2022/04/12 00:08:06;;;;;;;1.08;0.70;;;13.10;66.50;;;;;;5003179;28;20049;-74
2022/04/12 00:10:35;;;;;;;1.52;0.82;;;13.10;66.50;;;;;;5021548;28;20077;-76
2022/04/12 00:13:03;;;;;;;2.40;0.65;;;13.10;66.50;;;;;;5028345;28;20103;-74
2022/04/12 00:15:30;;;;;;;1.80;0.90;;;13.10;66.50;;;;;;5026746;28;20046;-75
2022/04/12 00:20:42;;;;;;;1.45;0.75;;;13.10;66.50;;;;;;5023209;28;20048;-78
2022/04/12 00:23:12;;;;;;;1.27;0.70;;;13.10;66.50;;;;;;5025082;28;20400;-76
2022/04/12 00:25:39;;;;;;;1.05;0.70;;;13.10;66.50;;;;;;5019747;28;20950;-75
2022/04/12 00:28:06;;;;;;;1.58;0.80;;;13.10;66.50;;;;;;5022312;28;20519;-76
2022/04/12 00:30:33;;;;;;;1.90;0.90;;;13.00;66.40;;;;;;5003231;28;20050;-75
2022/04/12 00:33:00;;;;;;;2.05;0.80;;;13.10;66.50;;;;;;5024666;28;20564;-75
2022/04/12 00:35:27;;;;;;;1.23;0.70;;;13.10;66.50;;;;;;5021104;28;20041;-75
2022/04/12 00:37:55;;;;;;;1.00;0.75;;;13.10;66.50;;;;;;5024577;28;20054;-74
2022/04/12 00:40:25;;;;;;;1.65;0.80;;;13.10;66.40;;;;;;5036287;28;20056;-75
2022/04/12 00:42:52;;;;;;;2.45;0.73;;;13.10;66.50;;;;;;5036801;28;20051;-76
2022/04/12 00:45:20;;;;;;;1.25;0.70;;;13.10;66.50;;;;;;5030359;28;20065;-77
2022/04/12 00:47:47;;;;;;;1.25;0.85;;;13.10;66.50;;;;;;5024726;28;20099;-75
2022/04/12 00:50:14;;;;;;;1.63;0.75;;;13.00;66.40;;;;;;5024808;28;20083;-75
2022/04/12 00:52:48;;;;;;;1.40;0.65;;;13.10;66.40;;;;;;5016777;28;20128;-76
2022/04/12 00:55:15;;;;;;;1.50;0.80;;;13.00;66.30;;;;;;5021958;28;20092;-76
2022/04/12 00:57:43;;;;;;;1.55;0.80;;;13.10;66.50;;;;;;5016723;28;20037;-75
2022/04/12 01:00:13;;;;;;;1.45;0.98;;;13.10;66.50;;;;;;5022487;28;20091;-76
2022/04/12 01:02:40;;;;;;;1.50;0.73;;;13.10;66.50;;;;;;5017282;28;20087;-76
2022/04/12 01:05:08;;;;;;;1.55;0.80;;;13.10;66.40;;;;;;5021450;28;20044;-76
2022/04/12 01:07:36;;;;;;;1.35;0.80;;;13.10;66.50;;;;;;5020281;28;20055;-75
2022/04/12 01:10:04;;;;;;;1.67;0.82;;;13.00;66.30;;;;;;5021563;28;20033;-77
2022/04/12 01:12:38;;;;;;;1.20;0.60;;;13.00;66.30;;;;;;5003639;28;20112;-76
2022/04/12 01:15:14;;;;;;;1.30;0.80;;;13.00;66.30;;;;;;5017999;28;20029;-75
2022/04/12 01:17:42;;;;;;;1.55;0.77;;;13.00;66.40;;;;;;5018494;28;20037;-74
2022/04/12 01:20:11;;;;;;;0.93;0.60;;;13.10;66.50;;;;;;5016715;28;20108;-79
2022/04/12 01:22:55;;;;;;;1.50;0.90;;;13.00;66.50;;;;;;5018958;28;20045;-75
2022/04/12 01:25:24;;;;;;;1.30;0.80;;;13.00;66.50;;;;;;5016667;28;20124;-76
2022/04/12 01:27:51;;;;;;;2.00;0.75;;;13.00;66.50;;;;;;5017401;28;20045;-74
2022/04/12 01:30:18;;;;;;;1.27;0.80;;;13.00;66.50;;;;;;5017185;28;20077;-76
2022/04/12 01:32:45;;;;;;;1.50;0.80;;;13.00;66.40;;;;;;4994738;28;20045;-75
2022/04/12 01:35:12;;;;;;;1.40;0.70;;;13.00;66.40;;;;;;5001104;28;20131;-76
2022/04/12 01:37:39;;;;;;;1.85;0.90;;;13.00;66.30;;;;;;5016757;28;20132;-79
2022/04/12 01:40:09;;;;;;;1.45;0.73;;;13.00;66.30;;;;;;5016989;28;20138;-75
2022/04/12 01:42:38;;;;;;;1.25;0.70;;;13.00;66.30;;;;;;5013685;28;20045;-75
2022/04/12 01:45:05;;;;;;;1.33;0.90;;;13.00;66.30;;;;;;5020897;28;20041;-73
2022/04/12 01:47:32;;;;;;;1.70;0.90;;;13.00;66.40;;;;;;5018601;28;20049;-76
2022/04/12 01:49:58;;;;;;;1.90;0.90;;;13.00;66.40;;;;;;5017724;28;20037;-75
2022/04/12 01:52:25;;;;;;;1.70;0.80;;;13.00;66.40;;;;;;5013490;28;20080;-76
2022/04/12 01:54:52;;;;;;;1.20;0.80;;;13.00;66.40;;;;;;5016106;28;20073;-74
2022/04/12 01:57:19;;;;;;;1.35;0.90;;;13.00;66.30;;;;;;4996249;28;20046;-75
2022/04/12 01:59:47;;;;;;;1.15;0.77;;;13.00;66.40;;;;;;5001256;28;20547;-75
2022/04/12 02:02:14;;;;;;;1.85;0.90;;;13.00;66.40;;;;;;4996858;28;20038;-73
2022/04/12 02:04:41;;;;;;;1.48;0.90;;;13.00;66.40;;;;;;4999980;28;20057;-75
2022/04/12 02:07:08;;;;;;;1.55;0.80;;;13.00;66.50;;;;;;5001094;28;20065;-76
2022/04/12 02:09:35;;;;;;;1.33;0.90;;;13.00;66.50;;;;;;4997848;28;20046;-74
2022/04/12 02:12:02;;;;;;;1.17;0.68;;;13.00;66.50;;;;;;5000797;28;20132;-77
2022/04/12 02:14:29;;;;;;;1.17;0.70;;;13.00;67.30;;;;;;4997123;28;20135;-77
2022/04/12 02:16:58;;;;;;;1.33;0.90;;;13.00;66.50;;;;;;5001546;28;20460;-75
2022/04/12 02:19:25;;;;;;;1.77;0.90;;;13.00;66.50;;;;;;4999715;28;20514;-74
2022/04/12 02:21:52;;;;;;;1.50;0.80;;;13.00;66.40;;;;;;5000677;28;20053;-75
2022/04/12 02:24:19;;;;;;;1.23;0.70;;;13.00;66.50;;;;;;5012881;28;20061;-77
2022/04/12 02:26:46;;;;;;;1.70;1.10;;;13.00;66.50;;;;;;5011125;28;20076;-73
2022/04/12 02:29:13;;;;;;;1.48;0.80;;;13.00;66.50;;;;;;4987898;28;20611;-76
2022/04/12 02:31:40;;;;;;;1.20;0.70;;;13.00;66.50;;;;;;4999322;28;20037;-74
2022/04/12 02:34:09;;;;;;;1.08;0.80;;;13.00;66.50;;;;;;5000644;28;20049;-76
2022/04/12 02:36:36;;;;;;;1.88;0.90;;;13.00;66.50;;;;;;5002305;28;20137;-78
2022/04/12 02:39:03;;;;;;;1.30;0.77;;;13.00;66.50;;;;;;5008202;28;20040;-73
2022/04/12 02:41:30;;;;;;;1.50;0.88;;;13.00;66.50;;;;;;5019181;28;20045;-74
2022/04/12 02:43:57;;;;;;;1.40;0.75;;;13.00;66.50;;;;;;5009686;28;20042;-76
2022/04/12 02:46:24;;;;;;;1.60;0.90;;;13.00;66.50;;;;;;5002438;28;20050;-75
2022/04/12 02:48:50;;;;;;;1.58;0.80;;;13.00;66.60;;;;;;4986650;28;20046;-75
2022/04/12 02:51:19;;;;;;;1.23;0.70;;;13.00;66.50;;;;;;5003286;28;20042;-75
2022/04/12 02:53:47;;;;;;;1.50;0.70;;;13.00;66.50;;;;;;5001499;28;20125;-74
2022/04/12 02:56:14;;;;;;;1.63;0.80;;;13.00;66.50;;;;;;4998744;28;20053;-74
2022/04/12 02:58:40;;;;;;;1.20;0.70;;;13.00;66.50;;;;;;5005855;28;20073;-76
2022/04/12 03:01:07;;;;;;;1.05;0.80;;;13.00;66.50;;;;;;5021833;28;20040;-75
2022/04/12 03:03:34;;;;;;;1.58;0.80;;;13.00;66.50;;;;;;5020713;28;20049;-77
2022/04/12 03:06:01;;;;;;;2.05;0.80;;;13.00;66.50;;;;;;5020400;28;20048;-75
2022/04/12 03:08:29;;;;;;;1.48;0.95;;;13.00;66.50;;;;;;5021489;28;20120;-75
2022/04/12 03:10:57;;;;;;;1.48;0.85;;;13.00;66.50;;;;;;5020843;28;20045;-77
2022/04/12 03:13:24;;;;;;;1.30;0.80;;;13.00;66.50;;;;;;5023865;28;20049;-77
2022/04/12 03:15:51;;;;;;;1.15;0.80;;;13.00;66.50;;;;;;5021219;28;20124;-75
2022/04/12 03:18:18;;;;;;;1.75;0.85;;;13.00;66.50;;;;;;5022353;28;20038;-77
2022/04/12 03:20:45;;;;;;;1.23;0.80;;;13.00;66.50;;;;;;5014514;28;20287;-75
2022/04/12 03:23:12;;;;;;;1.50;0.70;;;13.00;66.50;;;;;;5017996;28;20130;-76
2022/04/12 03:25:40;;;;;;;1.40;0.70;;;13.00;66.50;;;;;;5020762;28;20049;-75
2022/04/12 03:28:07;;;;;;;1.13;0.70;;;13.00;66.50;;;;;;5000650;28;20045;-76
2022/04/12 03:30:34;;;;;;;1.58;0.90;;;13.00;66.50;;;;;;5017670;28;20048;-77
2022/04/12 03:33:01;;;;;;;1.20;0.90;;;13.00;66.50;;;;;;5019613;28;20135;-77
2022/04/12 03:35:28;;;;;;;1.80;0.90;;;13.00;66.50;;;;;;5020023;28;20048;-76
2022/04/12 03:37:59;;;;;;;1.70;0.90;;;13.00;66.50;;;;;;5014821;28;20124;-74
2022/04/12 03:40:30;;;;;;;1.60;1.00;;;13.00;66.50;;;;;;5019536;28;20065;-76
2022/04/12 03:42:59;;;;;;;1.48;0.95;;;13.00;66.50;;;;;;5019604;28;20502;-78
2022/04/12 03:45:26;;;;;;;1.40;0.70;;;13.00;66.50;;;;;;5003685;28;20128;-76
2022/04/12 03:47:53;;;;;;;1.33;0.73;;;13.00;66.50;;;;;;5018042;28;20049;-77
2022/04/12 03:50:20;;;;;;;1.40;0.70;;;13.00;66.50;;;;;;5005370;28;20132;-76
2022/04/12 03:52:47;;;;;;;1.13;0.68;;;13.00;66.50;;;;;;5020253;28;20049;-74
2022/04/12 03:55:14;;;;;;;1.90;0.80;;;13.00;66.50;;;;;;5019190;28;20041;-75
2022/04/12 03:57:41;;;;;;;1.27;0.80;;;13.00;66.60;;;;;;4999545;28;20107;-76
2022/04/12 04:00:10;;;;;;;1.83;0.85;;;13.00;66.50;;;;;;5012809;28;20045;-76
2022/04/12 04:02:37;;;;;;;1.30;0.80;;;13.00;66.60;;;;;;5015977;28;20060;-74
2022/04/12 04:05:05;;;;;;;1.15;0.80;;;13.00;66.50;;;;;;5022435;28;20057;-75
2022/04/12 04:07:31;;;;;;;1.40;0.90;;;13.00;66.60;;;;;;5019396;28;20496;-75
2022/04/12 04:09:58;;;;;;;1.48;0.77;;;13.00;66.50;;;;;;5021885;28;20037;-77
2022/04/12 04:12:25;;;;;;;1.45;0.88;;;13.00;66.50;;;;;;5018971;28;20041;-75
2022/04/12 04:14:52;;;;;;;1.38;0.80;;;13.00;66.50;;;;;;5015063;28;20135;-74
2022/04/12 04:17:23;;;;;;;1.30;0.80;;;13.00;66.50;;;;;;5018553;28;20092;-77
2022/04/12 04:19:50;;;;;;;1.60;0.90;;;13.00;66.50;;;;;;5018701;28;20060;-76
2022/04/12 04:22:17;;;;;;;1.27;0.80;;;13.00;66.50;;;;;;5012910;28;20044;-75
2022/04/12 04:24:44;;;;;;;1.90;0.95;;;13.00;66.50;;;;;;5018871;28;20046;-76
2022/04/12 04:27:11;;;;;;;1.30;0.80;;;13.00;66.50;;;;;;5019927;28;20120;-78
2022/04/12 04:29:38;;;;;;;1.42;0.90;;;13.00;66.60;;;;;;5018784;28;20069;-77
2022/04/12 04:32:07;;;;;;;1.33;0.80;;;13.00;66.60;;;;;;5021613;28;20095;-76
2022/04/12 04:34:36;;;;;;;1.40;0.82;;;13.00;66.60;;;;;;5022188;28;20052;-75
2022/04/12 04:37:02;;;;;;;1.35;0.80;;;13.00;66.70;;;;;;5023772;28;20048;-75
2022/04/12 04:39:30;;;;;;;1.50;0.90;;;12.90;66.50;;;;;;5040965;28;20045;-74
2022/04/12 04:41:57;;;;;;;1.15;0.70;;;13.00;66.60;;;;;;5035537;28;20048;-74
2022/04/12 04:44:24;;;;;;;1.33;0.73;;;12.90;66.50;;;;;;4995972;28;20104;-75
2022/04/12 04:46:51;;;;;;;1.70;0.70;;;12.90;66.50;;;;;;5022483;28;20069;-75
2022/04/12 04:49:18;;;;;;;1.30;0.85;;;13.00;66.70;;;;;;5002767;28;20053;-77
2022/04/12 04:51:46;;;;;;;1.60;0.90;;;12.90;66.40;;;;;;5014988;28;20146;-75
2022/04/12 04:54:13;;;;;;;1.33;0.90;;;12.90;66.40;;;;;;5012457;28;20053;-75
2022/04/12 04:56:40;;;;;;;1.30;0.85;;;12.90;66.30;;;;;;5005464;28;20385;-76
2022/04/12 04:59:07;;;;;;;1.35;0.80;;;12.90;66.30;;;;;;5018283;28;20137;-74
2022/04/12 05:01:33;;;;;;;1.13;0.80;;;12.90;66.30;;;;;;5018545;28;20049;-75
2022/04/12 05:04:01;;;;;;;1.40;0.95;;;12.90;66.40;;;;;;5021670;28;20432;-74
2022/04/12 05:06:27;;;;;;;1.58;0.90;;;12.90;66.40;;;;;;5019892;28;20536;-75
2022/04/12 05:08:56;;;;;;;1.55;0.95;;;12.90;66.40;;;;;;5019639;28;20034;-76
2022/04/12 05:11:23;;;;;;;1.42;0.80;;;12.90;67.10;;;;;;5023168;28;20050;-75
2022/04/12 05:13:50;;;;;;;2.15;1.25;;;12.90;66.40;;;;;;5016570;28;20060;-75
2022/04/12 05:16:17;;;;;;;1.88;1.13;;;12.80;65.20;;;;;;5021856;28;20041;-77
2022/04/12 05:18:44;;;;;;;2.58;1.20;;;12.80;66.10;;;;;;5015758;28;20197;-73
2022/04/12 05:21:11;;;;;;;1.90;1.10;;;12.80;66.10;;;;;;5001649;28;20120;-77
2022/04/12 05:23:38;;;;;;;2.97;1.10;;;12.90;66.30;;;;;;5017719;28;20092;-75
2022/04/12 05:26:06;;;;;;;3.67;1.00;;;12.90;66.20;;;;;;5017839;28;20423;-74
2022/04/12 05:28:32;;;;;;;3.75;1.23;;;12.90;66.10;;;;;;5018232;28;20073;-73
2022/04/12 05:30:59;;;;;;;1.73;1.17;;;12.90;66.10;;;;;;5002182;28;20294;-74
2022/04/12 05:33:26;;;;;;;1.33;0.98;;;12.90;66.00;;;;;;5011828;28;20046;-76
2022/04/12 05:35:53;;;;;;;1.65;0.90;;;12.90;66.10;;;;;;5018270;28;20041;-73
2022/04/12 05:38:20;;;;;;;1.63;0.90;;;12.90;66.10;;;;;;5016424;28;20042;-76
2022/04/12 05:40:47;;;;;;;1.20;0.80;;;12.90;66.10;;;;;;5020177;28;20052;-75
2022/04/12 05:43:15;;;;;;;1.63;1.00;;;12.90;66.00;;;;;;5018473;28;20124;-78
2022/04/12 05:45:42;;;;;;;2.28;1.10;;;12.90;65.90;;;;;;5027406;28;20041;-73
2022/04/12 05:48:09;;;;;;;1.77;1.17;;;12.90;65.90;;;;;;5024168;28;20037;-77
2022/04/12 05:50:36;;;;;;;1.48;1.08;;;12.90;66.00;;;;;;5037347;28;20055;-76
2022/04/12 05:53:05;;;;;;;1.50;1.10;;;12.90;66.00;;;;;;5030001;28;20037;-75
2022/04/12 05:55:34;;;;;;;1.73;1.10;;;12.90;66.00;;;;;;5028441;28;20049;-74
2022/04/12 05:58:03;;;;;;;1.45;0.98;;;12.90;66.10;;;;;;5025837;28;20033;-74
2022/04/12 06:00:33;;;;;;;1.88;1.20;;;12.90;66.20;;;;;;5005110;28;20057;-73
2022/04/12 06:03:02;;;;;;;1.60;1.00;;;12.90;66.10;;;;;;5001814;28;20046;-76
2022/04/12 06:05:32;;;;;;;1.60;1.02;;;12.90;66.10;;;;;;5005321;28;20060;-74
2022/04/12 06:08:00;;;;;;;1.80;1.10;;;12.90;66.00;;;;;;5016304;28;20492;-75
2022/04/12 06:10:28;;;;;;;1.67;1.00;;;12.90;66.20;;;;;;5021631;28;20037;-74
2022/04/12 06:12:55;;;;;;;2.55;1.10;;;12.90;66.30;;;;;;5017839;28;20045;-73
2022/04/12 06:15:22;;;;;;;1.80;1.10;;;12.90;66.20;;;;;;5015615;28;20042;-75
2022/04/12 06:17:50;;;;;;;1.80;1.10;;;12.90;66.30;;;;;;5019987;28;20164;-75
2022/04/12 06:20:19;;;;;;;1.52;1.00;;;12.90;66.20;;;;;;5021096;28;20033;-73
2022/04/12 06:22:46;;;;;;;2.28;1.17;;;13.00;66.30;;;;;;5015591;28;20046;-75
2022/04/12 06:25:16;;;;;;;1.88;1.20;;;12.90;66.20;;;;;;5020334;28;20555;-73
2022/04/12 06:27:46;;;;;;;1.35;1.00;;;13.00;66.30;;;;;;5021298;28;20053;-76
2022/04/12 06:30:15;;;;;;;1.48;1.02;;;13.00;66.30;;;;;;5016018;28;20049;-72
2022/04/12 06:32:43;;;;;;;2.47;1.02;;;13.00;66.30;;;;;;5021883;28;20065;-75
2022/04/12 06:35:13;;;;;;;2.05;0.98;;;13.00;66.30;;;;;;5023224;28;20111;-74
2022/04/12 06:37:41;;;;;;;1.60;0.90;;;13.00;66.30;;;;;;5033397;28;20037;-74
2022/04/12 06:40:13;;;;;;;1.50;0.90;;;13.00;66.30;;;;;;5037057;28;20136;-76
2022/04/12 06:42:39;;;;;;;1.30;0.90;;;13.00;66.30;;;;;;5019449;28;20527;-73
2022/04/12 06:45:08;;;;;;;1.65;1.00;;;13.00;66.30;;;;;;5017186;28;20288;-75
2022/04/12 06:47:35;;;;;;;1.70;0.95;;;13.00;66.30;;;;;;5020771;28;20061;-73
2022/04/12 06:50:03;;;;;;;2.00;0.95;;;13.00;66.20;;;;;;5025449;28;20069;-73
2022/04/12 06:52:31;;;;;;;1.20;0.80;;;13.00;66.20;;;;;;5028761;28;20045;-73
2022/04/12 06:54:59;;;;;;;1.50;0.90;;;13.00;66.20;;;;;;5014329;28;20815;-76
2022/04/12 06:57:26;;;;;;;1.70;1.00;;;13.00;66.20;;;;;;5024991;28;20120;-76
2022/04/12 06:59:53;;;;;;;1.33;0.80;;;13.00;66.20;;;;;;5011961;28;20057;-76
2022/04/12 07:02:20;;;;;;;2.05;0.90;;;13.00;66.20;;;;;;5023762;28;20053;-74
2022/04/12 07:04:47;;;;;;;1.67;0.98;;;13.00;66.20;;;;;;5017925;28;20065;-73
2022/04/12 07:07:13;;;;;;;2.50;0.90;;;13.00;66.20;;;;;;5020708;28;20037;-75
2022/04/12 07:09:42;;;;;;;1.52;0.90;;;13.00;66.20;;;;;;5018857;28;20054;-72
2022/04/12 07:12:09;;;;;;;2.15;0.80;;;13.00;66.20;;;;;;5022843;28;20049;-76
2022/04/12 07:14:36;;;;;;;1.20;0.85;;;13.00;66.10;;;;;;5020397;28;20053;-76
2022/04/12 07:17:05;;;;;;;1.30;0.80;;;13.10;66.20;;;;;;5005402;28;20045;-72
2022/04/12 07:19:32;;;;;;;1.20;0.80;;;13.10;66.20;;;;;;5015288;28;20042;-73
2022/04/12 07:21:59;;;;;;;1.88;1.00;;;13.10;67.00;;;;;;5006489;28;20061;-74
2022/04/12 07:24:25;;;;;;;1.33;0.73;;;13.10;66.20;;;;;;5025650;28;20037;-74
2022/04/12 07:26:53;;;;;;;1.50;1.00;;;13.10;66.20;;;;;;5016289;28;20131;-76
2022/04/12 07:29:20;;;;;;;1.73;1.00;;;13.10;66.20;;;;;;5023762;28;20339;-72
2022/04/12 07:31:47;;;;;;;1.23;0.80;;;13.10;66.20;;;;;;5000683;28;20063;-72
2022/04/12 07:34:15;;;;;;;1.30;0.80;;;13.10;66.30;;;;;;5023170;28;20060;-72
2022/04/12 07:36:47;;;;;;;1.20;0.63;;;13.10;66.30;;;;;;5017459;28;20053;-74
2022/04/12 07:39:14;;;;;;;1.20;0.80;;;13.10;66.30;;;;;;5023190;28;20042;-74
2022/04/12 07:41:41;;;;;;;2.05;0.85;;;13.10;66.20;;;;;;5003177;28;20052;-72
2022/04/12 07:44:09;;;;;;;2.92;0.90;;;13.20;66.40;;;;;;5020846;28;20048;-75
2022/04/12 07:46:36;;;;;;;1.50;0.80;;;13.20;66.40;;;;;;5002483;28;20052;-72
2022/04/12 07:49:03;;;;;;;1.35;0.80;;;13.10;66.30;;;;;;5020767;28;20033;-74
2022/04/12 07:51:29;;;;;;;1.85;0.90;;;13.20;66.40;;;;;;5017883;28;20076;-72
2022/04/12 07:53:57;;;;;;;3.63;1.63;;;13.20;66.40;;;;;;5006759;28;20093;-70
2022/04/12 07:56:24;;;;;;;2.78;1.30;;;13.20;65.70;;;;;;5025696;28;20045;-71
2022/04/12 07:58:51;;;;;;;1.67;1.20;;;13.20;65.90;;;;;;5005016;28;20140;-74
2022/04/12 08:01:19;;;;;;;3.25;1.30;;;13.30;66.00;;;;;;5001499;28;20133;-74
2022/04/12 08:03:46;;;;;;;2.92;1.08;;;13.20;66.00;;;;;;5022633;28;20124;-73
2022/04/12 08:06:13;;;;;;;2.67;0.90;;;13.30;66.20;;;;;;5022652;28;20049;-72
2022/04/12 08:08:40;;;;;;;3.28;0.93;;;13.30;66.30;;;;;;5023528;28;20065;-75
2022/04/12 08:11:07;;;;;;;1.50;1.00;;;13.30;66.30;;;;;;5018343;28;20041;-75
2022/04/12 08:13:34;;;;;;;1.73;0.98;;;13.40;66.40;;;;;;5021582;28;20045;-74
2022/04/12 08:16:01;;;;;;;1.50;0.93;;;13.40;66.30;;;;;;5019559;28;20132;-72
2022/04/12 08:18:29;;;;;;;4.07;1.30;;;13.40;66.30;;;;;;5026652;28;20047;-74
2022/04/12 08:20:57;;;;;;;3.42;1.55;;;13.40;66.30;;;;;;5008380;28;20070;-75
2022/04/12 08:23:25;;;;;;;2.50;1.50;;;13.40;66.10;;;;;;5023459;28;20056;-74
2022/04/12 08:25:52;;;;;;;5.68;1.60;;;13.40;66.00;;;;;;5019263;28;20049;-73
2022/04/12 08:28:19;;;;;;;6.43;1.67;;;13.40;65.80;;;;;;5023691;28;20065;-71
2022/04/12 08:30:46;;;;;;;4.30;1.70;;;13.50;65.80;;;;;;5028614;28;20051;-73
2022/04/12 08:33:14;;;;;;;4.90;1.80;;;13.50;66.00;;;;;;5044839;28;20035;-73
2022/04/12 08:35:42;;;;;;;4.05;1.95;;;13.50;65.90;;;;;;5037502;28;20049;-75
2022/04/12 08:38:10;;;;;;;5.68;1.83;;;13.50;65.90;;;;;;5015128;28;20048;-71
2022/04/12 08:40:37;;;;;;;4.90;1.85;;;13.50;65.90;;;;;;5011965;28;20053;-75
2022/04/12 08:43:04;;;;;;;4.80;1.80;;;13.50;66.70;;;;;;5019256;28;20042;-74
2022/04/12 08:45:31;;;;;;;3.40;1.73;;;13.50;66.00;;;;;;5020961;28;20049;-73
2022/04/12 08:47:59;;;;;;;7.45;1.90;;;13.60;66.20;;;;;;5020674;28;20060;-73
2022/04/12 08:50:27;;;;;;;3.35;1.90;;;13.60;66.10;;;;;;5023156;28;20532;-74
2022/04/12 08:52:55;;;;;;;4.45;1.77;;;13.60;66.10;;;;;;5022493;28;20041;-75
2022/04/12 08:55:22;;;;;;;3.67;1.95;;;13.60;66.10;;;;;;5026636;28;20057;-75
2022/04/12 08:57:49;;;;;;;4.10;1.98;;;13.60;66.00;;;;;;5019552;28;20080;-77
2022/04/12 09:00:16;;;;;;;5.25;2.10;;;13.60;65.90;;;;;;5023340;28;20107;-77
2022/04/12 09:02:53;;;;;;;3.20;2.03;;;13.60;66.00;;;;;;5031267;28;20045;-73
2022/04/12 09:05:22;;;;;;;3.28;1.90;;;13.60;66.00;;;;;;5030114;28;20045;-73
2022/04/12 09:07:49;;;;;;;7.15;2.38;;;13.60;66.00;;;;;;5008043;28;20128;-76
2022/04/12 09:10:19;;;;;;;4.82;2.05;;;13.70;66.10;;;;;;5029256;28;20045;-74
2022/04/12 09:12:46;;;;;;;3.55;2.10;;;13.70;66.10;;;;;;5018756;28;20132;-72
2022/04/12 09:15:15;;;;;;;3.13;1.80;;;13.70;66.10;;;;;;5022775;28;20148;-77
2022/04/12 09:17:44;;;;;;;4.15;2.10;;;13.70;66.10;;;;;;5021963;28;20073;-75
2022/04/12 09:20:13;;;;;;;4.03;2.00;;;13.80;66.30;;;;;;5023075;28;20056;-74
2022/04/12 09:22:40;;;;;;;5.50;2.00;;;13.80;66.30;;;;;;5024000;28;20073;-74
2022/04/12 09:25:10;;;;;;;3.00;1.80;;;13.80;66.40;;;;;;5024448;28;20117;-74
2022/04/12 09:27:39;;;;;;;4.07;2.00;;;13.80;66.30;;;;;;5018816;28;20049;-73
2022/04/12 09:30:09;;;;;;;4.25;1.98;;;13.80;66.30;;;;;;5023307;28;20056;-76
2022/04/12 09:32:38;;;;;;;5.93;2.00;;;13.80;66.30;;;;;;5016674;28;20041;-75
2022/04/12 09:35:07;;;;;;;3.67;1.73;;;13.80;66.30;;;;;;5021046;28;20049;-76
2022/04/12 09:37:36;;;;;;;3.30;1.75;;;13.80;66.30;;;;;;5022196;28;20052;-76
2022/04/12 09:40:08;;;;;;;4.88;1.80;;;13.90;66.40;;;;;;5022788;28;20115;-77
2022/04/12 09:42:39;;;;;;;3.95;1.60;;;13.90;66.40;;;;;;5021794;28;20053;-75
2022/04/12 09:45:08;;;;;;;7.85;1.88;;;13.90;66.50;;;;;;5026414;28;20060;-73
2022/04/12 09:47:35;;;;;;;2.92;1.60;;;13.90;66.50;;;;;;5000102;28;20049;-73
2022/04/12 09:50:02;;;;;;;3.13;1.63;;;13.90;66.40;;;;;;5025204;28;20548;-77
2022/04/12 09:52:29;;;;;;;3.80;1.80;;;13.90;66.50;;;;;;5018605;28;20053;-76
2022/04/12 09:54:58;;;;;;;3.00;1.60;;;14.00;66.60;;;;;;5020679;28;20609;-75
2022/04/12 09:57:27;;;;;;;2.28;1.42;;;14.00;66.60;;;;;;5014344;28;20069;-75
2022/04/12 09:59:58;;;;;;;4.13;1.60;;;14.00;66.70;;;;;;5001805;28;20140;-78
2022/04/12 10:02:25;;;;;;;3.63;1.52;;;14.00;66.70;;;;;;5023031;28;20073;-74
2022/04/12 10:04:53;;;;;;;3.38;1.65;;;14.00;66.80;;;;;;5021907;28;20076;-76
2022/04/12 10:07:22;;;;;;;3.95;1.58;;;14.00;66.80;;;;;;5027328;28;20060;-72
2022/04/12 10:09:50;;;;;;;3.20;1.67;;;14.00;66.70;;;;;;5003111;28;20045;-74
2022/04/12 10:12:21;;;;;;;3.60;1.58;;;14.00;66.70;;;;;;4997046;28;20048;-74
2022/04/12 10:14:49;;;;;;;7.32;1.60;;;14.00;66.60;;;;;;4998435;28;20128;-75
2022/04/12 10:17:18;;;;;;;2.58;1.40;;;14.10;66.80;;;;;;5023254;28;20045;-74
2022/04/12 10:19:45;;;;;;;2.50;1.35;;;14.10;66.80;;;;;;5003576;28;20115;-73
2022/04/12 10:22:12;;;;;;;7.93;1.60;;;14.10;66.90;;;;;;5021214;28;20049;-72
2022/04/12 10:24:40;;;;;;;3.55;1.60;;;14.10;66.80;;;;;;5023014;28;20042;-73
2022/04/12 10:27:08;;;;;;;5.55;1.50;;;14.10;66.80;;;;;;5022127;28;20045;-74
2022/04/12 10:29:36;;;;;;;3.55;1.27;;;14.10;66.70;;;;;;5024241;28;20045;-76
2022/04/12 10:32:05;;;;;;;2.35;1.20;;;14.20;66.80;;;;;;5034018;28;20037;-78
2022/04/12 10:34:33;;;;;;;2.95;1.30;;;14.10;66.60;;;;;;5038863;28;20289;-77
2022/04/12 10:37:04;;;;;;;4.22;1.23;;;14.10;66.70;;;;;;5031639;28;20095;-73
2022/04/12 10:39:36;;;;;;;3.08;1.30;;;14.10;66.70;;;;;;5002573;28;20049;-78
2022/04/12 10:42:08;;;;;;;2.45;1.10;;;14.10;66.60;;;;;;5027657;28;20119;-76
2022/04/12 10:44:40;;;;;;;3.25;1.08;;;14.10;66.50;;;;;;5001377;28;20045;-77
2022/04/12 10:47:20;;;;;;;2.97;1.13;;;14.20;66.70;;;;;;5005804;28;20050;-75
2022/04/12 10:49:52;;;;;;;3.58;1.13;;;14.20;66.70;;;;;;5004606;28;20049;-76
2022/04/12 10:52:36;;;;;;;2.88;1.10;;;14.20;66.50;;;;;;5019514;28;20124;-74
2022/04/12 10:55:04;;;;;;;;;;;14.20;66.50;;;;;;5024342;28;20065;-76
2022/04/12 10:57:31;;;;;;;4.15;1.30;;;14.20;66.40;;;;;;5024154;28;19925;-74
2022/04/12 11:00:16;;;;;;;2.38;1.10;;;14.20;66.50;;;;;;5024424;28;20059;-76
2022/04/12 11:02:44;;;;;;;2.85;1.35;;;14.20;66.30;;;;;;5024581;28;20129;-73
2022/04/12 11:05:45;;;;;;;2.25;1.00;;;14.20;66.40;;;;;;5025461;28;20045;-76
2022/04/12 11:08:47;;;;;;;4.10;1.10;;;14.20;66.40;;;;;;5023377;28;20504;-74
2022/04/12 11:11:20;;;;;;;3.50;1.13;;;14.30;66.50;;;;;;5030168;28;20064;-77
2022/04/12 11:13:49;;;;;;;4.05;1.10;;;14.20;66.20;;;;;;5032840;28;20041;-73
2022/04/12 11:16:19;;;;;;;1.75;0.82;;;14.30;66.20;;;;;;5039942;28;20080;-75
2022/04/12 11:18:48;;;;;;;2.90;1.27;;;14.30;66.20;;;;;;5036009;28;20045;-73
2022/04/12 11:21:15;;;;;;;2.85;1.10;;;14.30;66.30;;;;;;5016528;28;20567;-75
2022/04/12 11:23:48;;;;;;;4.15;1.40;;;14.30;66.20;;;;;;5028946;28;20381;-77
2022/04/12 11:26:37;;;;;;;2.65;1.10;;;14.30;66.30;;;;;;5022364;28;20088;-75
2022/04/12 11:29:09;;;;;;;4.95;1.20;;;14.30;66.20;;;;;;5021020;28;20046;-75
2022/04/12 11:31:40;;;;;;;3.20;1.20;;;14.30;66.20;;;;;;5004375;28;20072;-74
2022/04/12 11:34:08;;;;;;;2.30;1.17;;;14.30;66.20;;;;;;5018363;28;20079;-76
2022/04/12 11:36:35;;;;;;;7.45;1.33;;;14.30;66.20;;;;;;5024285;28;20050;-75
2022/04/12 11:39:04;;;;;;;2.13;1.02;;;14.30;66.20;;;;;;5017228;28;20045;-74
2022/04/12 11:41:31;;;;;;;3.28;1.15;;;14.30;66.20;;;;;;5024098;28;20053;-74
2022/04/12 11:44:02;;;;;;;2.50;1.10;;;14.30;66.20;;;;;;5022975;28;20041;-75
2022/04/12 11:46:31;;;;;;;4.13;1.10;;;14.40;66.30;;;;;;5025403;28;20119;-75
2022/04/12 11:49:05;;;;;;;4.18;1.20;;;14.40;66.20;;;;;;5026241;28;20451;-77
2022/04/12 11:51:36;;;;;;;3.83;1.20;;;14.30;66.20;;;;;;5022765;28;20133;-75
2022/04/12 11:54:22;;;;;;;3.00;1.10;;;14.40;66.30;;;;;;5020806;28;20039;-76
2022/04/12 11:57:04;;;;;;;4.50;1.00;;;14.40;66.30;;;;;;5004521;28;20369;-76
2022/04/12 11:59:47;;;;;;;4.75;1.27;;;14.40;66.40;;;;;;5023880;28;20072;-74
2022/04/12 12:02:15;;;;;;;7.68;1.20;;;14.40;66.40;;;;;;5024174;28;20510;-74
2022/04/12 12:04:46;;;;;;;3.05;1.20;;;14.40;66.60;;;;;;5024606;28;20797;-75
2022/04/12 12:07:14;;;;;;;3.30;1.35;;;14.40;66.60;;;;;;5026311;28;20400;-72
2022/04/12 12:09:51;;;;;;;2.47;1.15;;;14.40;66.60;;;;;;5024376;28;20049;-76
2022/04/12 12:12:19;;;;;;;2.38;1.13;;;14.40;66.60;;;;;;5018576;28;20033;-76
2022/04/12 12:14:46;;;;;;;3.13;1.00;;;14.40;66.70;;;;;;5023833;28;20060;-74
2022/04/12 12:17:18;;;;;;;4.05;1.33;;;14.40;66.80;;;;;;5028178;28;20037;-74
2022/04/12 12:19:46;;;;;;;1.98;0.98;;;14.40;66.80;;;;;;5024190;28;20053;-75
2022/04/12 12:22:14;;;;;;;2.45;1.10;;;14.40;66.80;;;;;;5021857;28;20113;-74
2022/04/12 12:24:52;;;;;;;3.35;1.13;;;14.40;66.80;;;;;;5022291;28;20056;-75
2022/04/12 12:27:30;;;;;;;3.88;1.33;;;14.40;66.90;;;;;;5026454;28;20042;-72
2022/04/12 12:30:06;;;;;;;2.95;1.30;;;14.40;66.90;;;;;;5027912;28;20056;-72
2022/04/12 12:32:34;;;;;;;1.80;0.98;;;14.40;66.90;;;;;;5038986;28;20076;-76
2022/04/12 12:35:06;;;;;;;3.03;1.15;;;14.40;67.00;;;;;;5025691;28;20509;-75
2022/04/12 12:37:33;;;;;;;;;;;14.40;67.20;;;;;;5027091;28;20080;-73
2022/04/12 12:40:02;;;;;;;3.22;1.27;;;14.40;67.30;;;;;;4997125;28;19928;-74
2022/04/12 12:42:37;;;;;;;5.95;1.38;;;14.40;67.40;;;;;;5021535;28;20076;-74
2022/04/12 12:45:12;;;;;;;2.80;1.35;;;14.40;67.50;;;;;;5017679;28;20052;-73
2022/04/12 12:47:40;;;;;;;6.00;1.45;;;14.40;67.70;;;;;;5032153;28;20065;-74
2022/04/12 12:50:10;;;;;;;4.35;1.23;;;14.40;67.70;;;;;;5025540;28;20120;-76
2022/04/12 12:52:37;;;;;;;2.97;1.10;;;14.40;68.00;;;;;;5027141;28;20107;-74
2022/04/12 12:55:07;;;;;;;4.47;1.08;;;14.40;67.70;;;;;;5020838;28;20048;-74
2022/04/12 12:57:39;;;;;;;3.13;1.30;;;14.40;67.90;;;;;;5021965;28;20049;-73